Terminal Aerodrome Forecast
Issued by NWS

Home | Current Version | Previous Version | Text Only | Print | Product List | Glossary On
Versions: 1 2 3 4 5 6 7 8 9 10 11 12 13 14 15 16 17 18 19 20 21 22 23 24 25 26 27 28 29 30 31 32 33 34 35 36 37 38 39 40
000
FTAK31 PAFA 311131
TAFAQT
TAF
PAQT 311131Z 3112/0112 09011KT P6SM SCT100 BKN200
     FM311800 09010KT P6SM SCT060 BKN100
     FM010000 18012KT P6SM VCSH SCT025 OVC060
     FM010400 25014KT 3SM -RA BR BKN009 OVC020=

USA.gov is the U.S. government's official web portal to all federal, state and local government web resources and services.